Whitchurch (Shropshire), United Kingdom
Current Conditions -  °F | °C
As of 7:50 AM on Thursday 27 Nov 2014 (Local Time) from EGOS Reporting Station
Moderate Fog Moderate Fog  
Wind Chill: 45°   Ceiling: 200
Heat Index: 45°   Visibility: 0.5mi
Dew Point: 43°   Wind: 2mph
Humidity: 93%   Direction: 100°E
Pressure: 29.59"   Gusts: NA
Location:  52.97°N, 2.68°W
Report Text: EGOS 270750Z 10002KT 0800 FG OVC002 07/06 Q1002 AMB TEMPO 0500 FG BKN001 RED
Loading
Personal Weather Stations






























Interactive Weather Map New forecast layout! Learn more

10-Day Weather Forecast

Advertisements
Track Severe Weather on mobile